createdAt,value
2023-02-27T00:01:33.933Z,101219.00
2023-02-27T00:04:02.240Z,101219.13
2023-02-27T00:06:30.286Z,101226.78
2023-02-27T00:08:58.132Z,101215.63
2023-02-27T00:11:27.588Z,101215.66
2023-02-27T00:13:55.458Z,101215.75
2023-02-27T00:16:25.001Z,101216.50
2023-02-27T00:18:53.044Z,101205.56
2023-02-27T00:21:21.498Z,101210.84
2023-02-27T00:23:49.573Z,101212.28
2023-02-27T00:26:18.360Z,101214.78
2023-02-27T00:28:46.405Z,101212.22
2023-02-27T00:31:16.896Z,101204.50
2023-02-27T00:33:46.282Z,101209.63
2023-02-27T00:36:15.971Z,101209.47
2023-02-27T00:38:43.915Z,101208.06
2023-02-27T00:41:11.646Z,101211.56
2023-02-27T00:43:39.641Z,101210.25
2023-02-27T00:46:07.560Z,101215.44
2023-02-27T00:48:35.216Z,101212.25
2023-02-27T00:51:04.973Z,101216.38
2023-02-27T00:53:33.291Z,101218.31
2023-02-27T00:56:00.957Z,101217.28
2023-02-27T00:58:29.764Z,101216.09
2023-02-27T01:01:00.136Z,101223.75
2023-02-27T01:03:30.927Z,101217.56
2023-02-27T01:05:59.117Z,101215.22
2023-02-27T01:08:28.313Z,101220.97
2023-02-27T01:10:56.522Z,101218.44
2023-02-27T01:13:25.115Z,101219.28
2023-02-27T01:15:54.182Z,101221.44
2023-02-27T01:18:21.863Z,101215.44
2023-02-27T01:20:53.166Z,101222.00
2023-02-27T01:23:20.929Z,101229.00
2023-02-27T01:25:51.792Z,101216.72
2023-02-27T01:28:19.597Z,101216.78
2023-02-27T01:30:47.350Z,101213.28
2023-02-27T01:33:16.176Z,101213.09
2023-02-27T01:35:44.131Z,101219.69
2023-02-27T01:38:13.846Z,101217.38
2023-02-27T01:40:44.091Z,101219.00
2023-02-27T01:43:17.214Z,101216.59
2023-02-27T01:45:47.832Z,101210.56
2023-02-27T01:48:19.119Z,101216.97
2023-02-27T01:50:51.730Z,101222.78
2023-02-27T01:53:24.997Z,101218.72
2023-02-27T01:55:56.157Z,101213.25
2023-02-27T01:58:26.990Z,101215.69
2023-02-27T02:00:56.133Z,101214.69
2023-02-27T02:03:30.718Z,101211.44
2023-02-27T02:06:00.707Z,101211.00
2023-02-27T02:08:33.899Z,101214.31
2023-02-27T02:11:03.314Z,101205.69
2023-02-27T02:13:33.368Z,101218.09
2023-02-27T02:16:14.828Z,101212.25
2023-02-27T02:18:50.245Z,101209.22
2023-02-27T02:21:51.647Z,101206.53
2023-02-27T02:24:52.816Z,101210.22
2023-02-27T02:27:34.425Z,101201.97
2023-02-27T02:30:32.420Z,101200.34
2023-02-27T02:33:33.989Z,101197.16
2023-02-27T02:37:07.128Z,101199.66
2023-02-27T02:40:06.308Z,101207.16
2023-02-27T02:42:39.971Z,101208.50
2023-02-27T02:45:18.029Z,101205.25
2023-02-27T02:48:00.922Z,101208.09
2023-02-27T02:50:36.150Z,101212.09
2023-02-27T02:53:09.650Z,101205.47
2023-02-27T02:55:44.849Z,101219.00
2023-02-27T02:58:18.628Z,101216.78
2023-02-27T03:01:00.126Z,101225.34
2023-02-27T03:03:32.724Z,101222.38
2023-02-27T03:06:04.925Z,101221.22
2023-02-27T03:08:38.298Z,101224.63
2023-02-27T03:11:08.253Z,101222.94
2023-02-27T03:13:41.969Z,101219.09
2023-02-27T03:16:16.848Z,101223.34
2023-02-27T03:18:51.397Z,101228.09
2023-02-27T03:21:26.284Z,101230.50
2023-02-27T03:23:57.224Z,101226.13
2023-02-27T03:26:33.840Z,101228.75
2023-02-27T03:29:06.073Z,101229.53
2023-02-27T03:31:39.158Z,101232.91
2023-02-27T03:34:16.216Z,101237.06
2023-02-27T03:36:50.494Z,101240.38
2023-02-27T03:39:26.318Z,101241.31
2023-02-27T03:42:03.500Z,101245.88
2023-02-27T03:45:08.907Z,101251.41
2023-02-27T03:47:37.507Z,101255.34
2023-02-27T03:50:06.409Z,101251.34
2023-02-27T03:52:34.537Z,101264.16
2023-02-27T03:55:08.234Z,101259.50
2023-02-27T03:57:38.562Z,101256.84
2023-02-27T04:00:13.399Z,101269.06
2023-02-27T04:02:50.494Z,101264.06
2023-02-27T04:05:22.731Z,101270.81
2023-02-27T04:08:25.804Z,101264.41
2023-02-27T04:11:18.090Z,101269.22
2023-02-27T04:14:01.458Z,101274.31
2023-02-27T04:16:57.005Z,101276.09
2023-02-27T04:19:54.166Z,101275.34
2023-02-27T04:22:33.892Z,101275.78
2023-02-27T04:25:17.997Z,101277.88
2023-02-27T04:27:53.734Z,101292.03
2023-02-27T04:30:29.015Z,101292.22
2023-02-27T04:33:04.662Z,101293.81
2023-02-27T04:35:35.853Z,101291.91
2023-02-27T04:38:07.206Z,101291.41
2023-02-27T04:40:39.776Z,101297.03
2023-02-27T04:43:10.652Z,101288.91
2023-02-27T04:45:42.679Z,101295.50
2023-02-27T04:48:17.741Z,101303.75
2023-02-27T04:50:50.629Z,101292.44
2023-02-27T04:53:24.033Z,101296.16
2023-02-27T04:55:55.891Z,101303.97
2023-02-27T04:58:27.744Z,101293.72
2023-02-27T05:01:01.992Z,101296.97
2023-02-27T05:03:34.617Z,101295.34
2023-02-27T05:06:04.102Z,101310.38
2023-02-27T05:08:40.135Z,101317.88
2023-02-27T05:11:12.472Z,101316.13
2023-02-27T05:13:47.064Z,101320.53
2023-02-27T05:16:22.040Z,101314.84
2023-02-27T05:18:51.317Z,101309.63
2023-02-27T05:21:27.833Z,101323.06
2023-02-27T05:24:11.953Z,101312.16
2023-02-27T05:26:55.484Z,101310.91
2023-02-27T05:29:34.295Z,101321.13
2023-02-27T05:32:16.326Z,101322.25
2023-02-27T05:34:51.976Z,101318.19
2023-02-27T05:37:24.308Z,101324.50
2023-02-27T05:39:54.063Z,101327.16
2023-02-27T05:42:28.640Z,101327.84
2023-02-27T05:45:00.397Z,101326.38
2023-02-27T05:47:33.446Z,101327.22
2023-02-27T05:50:06.697Z,101319.53
2023-02-27T05:52:37.614Z,101325.63
2023-02-27T05:55:13.598Z,101322.00
2023-02-27T05:57:46.742Z,101321.66
2023-02-27T06:00:18.828Z,101330.06
2023-02-27T06:02:48.467Z,101331.69
2023-02-27T06:05:18.830Z,101333.06
2023-02-27T06:07:46.735Z,101337.59
2023-02-27T06:10:17.785Z,101343.31
2023-02-27T06:12:45.793Z,101348.06
2023-02-27T06:15:14.657Z,101346.78
2023-02-27T06:17:42.421Z,101352.47
2023-02-27T06:20:13.980Z,101355.13
2023-02-27T06:22:42.023Z,101352.19
2023-02-27T06:25:11.107Z,101363.03
2023-02-27T06:27:38.800Z,101362.22
2023-02-27T06:30:08.808Z,101359.19
2023-02-27T06:32:36.678Z,101368.16
2023-02-27T06:35:05.981Z,101372.94
2023-02-27T06:37:35.170Z,101370.34
2023-02-27T06:40:06.010Z,101374.34
2023-02-27T06:42:34.071Z,101379.59
2023-02-27T06:45:03.677Z,101388.28
2023-02-27T06:47:32.265Z,101378.25
2023-02-27T06:50:00.850Z,101381.84
2023-02-27T06:52:28.890Z,101391.72
2023-02-27T06:54:58.850Z,101385.69
2023-02-27T06:57:27.282Z,101389.47
2023-02-27T06:59:54.967Z,101399.25
2023-02-27T07:02:23.676Z,101390.84
2023-02-27T07:04:51.350Z,101395.75
2023-02-27T07:07:33.977Z,101395.59
2023-02-27T07:10:07.769Z,101394.13
2023-02-27T07:12:35.879Z,101397.66
2023-02-27T07:15:04.779Z,101397.03
2023-02-27T07:17:32.718Z,101386.81
2023-02-27T07:20:00.679Z,101387.22
2023-02-27T07:22:29.289Z,101390.84
2023-02-27T07:24:57.201Z,101394.06
2023-02-27T07:27:26.382Z,101395.97
2023-02-27T07:29:54.122Z,101397.19
2023-02-27T07:32:22.238Z,101394.38
2023-02-27T07:34:52.940Z,101385.38
2023-02-27T07:37:20.760Z,101390.56
2023-02-27T07:39:48.492Z,101396.53
2023-02-27T07:42:16.669Z,101400.06
2023-02-27T07:44:45.810Z,101391.16
2023-02-27T07:47:14.394Z,101387.72
2023-02-27T07:49:42.338Z,101399.63
2023-02-27T07:52:11.240Z,101396.44
2023-02-27T07:54:39.094Z,101394.53
2023-02-27T07:57:07.983Z,101392.00
2023-02-27T07:59:35.754Z,101388.78
2023-02-27T08:02:05.485Z,101388.13
2023-02-27T08:04:34.106Z,101394.22
2023-02-27T08:07:03.158Z,101390.72
2023-02-27T08:09:31.595Z,101389.25
2023-02-27T08:11:59.799Z,101375.91
2023-02-27T08:14:27.689Z,101385.31
2023-02-27T08:16:55.549Z,101381.22
2023-02-27T08:19:24.954Z,101378.78
2023-02-27T08:21:52.783Z,101376.28
2023-02-27T08:24:20.767Z,101376.22
2023-02-27T08:26:48.857Z,101382.44
2023-02-27T08:29:17.531Z,101374.78
2023-02-27T08:31:46.834Z,101377.50
2023-02-27T08:34:17.352Z,101381.88
2023-02-27T08:36:46.542Z,101380.19
2023-02-27T08:39:16.348Z,101380.53
2023-02-27T08:41:44.360Z,101384.66
2023-02-27T08:44:13.298Z,101377.88
2023-02-27T08:46:41.391Z,101373.16
2023-02-27T08:49:09.711Z,101373.00
2023-02-27T08:51:38.444Z,101371.47
2023-02-27T08:54:07.949Z,101372.63
2023-02-27T08:56:35.732Z,101374.41
2023-02-27T08:59:03.609Z,101370.00
2023-02-27T09:01:34.600Z,101378.63
2023-02-27T09:04:03.253Z,101370.13
2023-02-27T09:06:32.389Z,101364.91
2023-02-27T09:09:00.900Z,101369.31
2023-02-27T09:11:30.835Z,101369.28
2023-02-27T09:13:58.924Z,101369.38
2023-02-27T09:16:27.559Z,101364.41
2023-02-27T09:18:55.769Z,101372.94
2023-02-27T09:21:24.838Z,101367.09
2023-02-27T09:23:53.025Z,101378.19
2023-02-27T09:26:22.910Z,101367.28
2023-02-27T09:28:56.045Z,101377.47
2023-02-27T09:31:23.933Z,101375.59
2023-02-27T09:33:52.069Z,101373.88
2023-02-27T09:36:19.793Z,101370.59
2023-02-27T09:38:47.510Z,101365.59
2023-02-27T09:41:43.133Z,101372.22
2023-02-27T09:44:36.340Z,101382.59
2023-02-27T09:47:17.012Z,101385.41
2023-02-27T09:49:54.981Z,101377.75
2023-02-27T09:52:22.820Z,101382.75
2023-02-27T09:54:50.850Z,101385.44
2023-02-27T09:57:25.911Z,101374.47
2023-02-27T10:00:01.608Z,101372.75
2023-02-27T10:02:45.400Z,101377.06
2023-02-27T10:05:24.441Z,101376.25
2023-02-27T10:08:03.437Z,101382.19
2023-02-27T10:10:37.054Z,101383.13
2023-02-27T10:13:21.600Z,101389.91
2023-02-27T10:15:54.691Z,101383.25
2023-02-27T10:18:29.144Z,101387.50
2023-02-27T10:21:01.507Z,101388.41
2023-02-27T10:23:36.715Z,101394.38
2023-02-27T10:26:05.531Z,101395.28
2023-02-27T10:28:34.269Z,101395.31
2023-02-27T10:31:03.744Z,101389.41
2023-02-27T10:33:36.084Z,101385.13
2023-02-27T10:36:15.807Z,101392.03
2023-02-27T10:38:51.997Z,101380.84
2023-02-27T10:41:23.031Z,101386.84
2023-02-27T10:43:53.044Z,101386.00
2023-02-27T10:46:27.383Z,101385.97
2023-02-27T10:48:55.473Z,101379.97
2023-02-27T10:51:26.541Z,101373.97
2023-02-27T10:54:18.286Z,101377.38
2023-02-27T10:56:48.909Z,101373.06
2023-02-27T10:59:22.752Z,101363.69
2023-02-27T11:01:54.959Z,101362.84
2023-02-27T11:04:30.402Z,101349.97
2023-02-27T11:07:00.001Z,101346.53
2023-02-27T11:09:29.566Z,101342.25
2023-02-27T11:12:11.864Z,101349.97
2023-02-27T11:14:50.739Z,101349.13
2023-02-27T11:17:26.557Z,101351.66
2023-02-27T11:19:54.358Z,101337.03
2023-02-27T11:22:24.764Z,101331.91
2023-02-27T11:24:54.772Z,101339.59
2023-02-27T11:27:26.586Z,101336.25
2023-02-27T11:30:00.605Z,101325.03
2023-02-27T11:32:37.186Z,101319.81
2023-02-27T11:35:05.659Z,101331.88
2023-02-27T11:37:35.924Z,101337.06
2023-02-27T11:40:19.329Z,101320.69
2023-02-27T11:42:50.843Z,101322.41
2023-02-27T11:46:04.667Z,101324.91
2023-02-27T11:48:24.826Z,101323.97
2023-02-27T11:51:09.888Z,101315.97
2023-02-27T11:53:53.736Z,101313.53
2023-02-27T11:56:27.644Z,101299.56
2023-02-27T11:59:04.034Z,101298.09
2023-02-27T12:01:38.175Z,101305.78
2023-02-27T12:04:16.713Z,101293.94
2023-02-27T12:06:52.162Z,101310.47
2023-02-27T12:09:39.677Z,101314.69
2023-02-27T12:12:18.205Z,101294.66
2023-02-27T12:14:51.739Z,101276.63
2023-02-27T12:17:27.283Z,101294.88
2023-02-27T12:20:23.367Z,101274.88
2023-02-27T12:22:54.742Z,101264.16
2023-02-27T12:25:33.262Z,101270.34
2023-02-27T12:28:04.712Z,101271.38
2023-02-27T12:30:39.895Z,101263.31
2023-02-27T12:33:19.305Z,101249.34
2023-02-27T12:35:56.557Z,101251.94
2023-02-27T12:38:25.188Z,101251.19
2023-02-27T12:41:17.319Z,101236.00
2023-02-27T12:43:50.207Z,101234.81
2023-02-27T12:46:39.606Z,101243.00
2023-02-27T12:49:26.214Z,101247.91
2023-02-27T12:52:05.219Z,101264.75
2023-02-27T12:54:47.580Z,101257.53
2023-02-27T12:57:41.981Z,101261.00
2023-02-27T13:00:16.516Z,101253.97
2023-02-27T13:02:54.388Z,101251.94
2023-02-27T13:05:35.448Z,101245.53
2023-02-27T13:08:15.549Z,101244.16
2023-02-27T13:10:49.002Z,101240.06
2023-02-27T13:13:24.167Z,101242.50
2023-02-27T13:15:56.548Z,101227.81
2023-02-27T13:18:33.570Z,101230.53
2023-02-27T13:21:09.580Z,101219.78
2023-02-27T13:23:50.506Z,101218.28
2023-02-27T13:26:23.745Z,101226.97
2023-02-27T13:28:53.050Z,101222.19
2023-02-27T13:31:31.180Z,101224.13
2023-02-27T13:34:08.955Z,101227.72
2023-02-27T13:36:40.878Z,101211.38
2023-02-27T13:40:01.469Z,101217.97
2023-02-27T13:42:57.017Z,101218.69
2023-02-27T13:45:48.466Z,101220.63
2023-02-27T13:48:45.124Z,101221.84
2023-02-27T13:51:48.921Z,101225.44
2023-02-27T13:54:22.643Z,101235.63
2023-02-27T13:56:52.137Z,101229.00
2023-02-27T13:59:26.350Z,101226.38
2023-02-27T14:01:57.807Z,101225.44
2023-02-27T14:04:30.074Z,101231.78
2023-02-27T14:07:01.095Z,101239.44
2023-02-27T14:09:37.348Z,101239.38
2023-02-27T14:12:07.647Z,101248.91
2023-02-27T14:14:41.711Z,101240.22
2023-02-27T14:17:12.345Z,101229.78
2023-02-27T14:19:56.770Z,101248.09
2023-02-27T14:22:37.566Z,101240.13
2023-02-27T14:25:17.023Z,101226.50
2023-02-27T14:27:56.988Z,101241.19
2023-02-27T14:30:33.586Z,101243.66
2023-02-27T14:33:08.120Z,101229.66
2023-02-27T14:35:37.273Z,101237.66
2023-02-27T14:38:11.384Z,101243.91
2023-02-27T14:40:45.012Z,101246.41
2023-02-27T14:43:24.438Z,101240.41
2023-02-27T14:45:54.750Z,101237.88
2023-02-27T14:48:28.625Z,101243.13
2023-02-27T14:50:57.978Z,101237.16
2023-02-27T14:53:28.138Z,101253.28
2023-02-27T14:55:57.676Z,101242.91
2023-02-27T14:58:26.221Z,101243.78
2023-02-27T15:01:06.069Z,101244.75
2023-02-27T15:03:39.899Z,101233.53
2023-02-27T15:06:18.233Z,101249.03
2023-02-27T15:08:49.903Z,101243.94
2023-02-27T15:11:19.713Z,101233.63
2023-02-27T15:13:49.581Z,101240.56
2023-02-27T15:16:31.751Z,101246.69
2023-02-27T15:19:02.443Z,101238.88
2023-02-27T15:21:35.040Z,101236.38
2023-02-27T15:24:04.684Z,101238.09
2023-02-27T15:26:39.835Z,101238.97
2023-02-27T15:29:09.644Z,101239.84
2023-02-27T15:31:39.201Z,101237.28
2023-02-27T15:34:15.982Z,101245.00
2023-02-27T15:36:48.322Z,101235.63
2023-02-27T15:39:19.283Z,101236.53
2023-02-27T15:41:49.819Z,101230.34
2023-02-27T15:44:20.406Z,101230.41
2023-02-27T15:46:51.018Z,101242.38
2023-02-27T15:49:21.073Z,101239.00
2023-02-27T15:51:55.125Z,101237.25
2023-02-27T15:54:23.902Z,101245.03
2023-02-27T15:56:54.250Z,101235.59
2023-02-27T15:59:22.231Z,101241.75
2023-02-27T16:01:51.467Z,101246.09
2023-02-27T16:04:25.160Z,101254.72
2023-02-27T16:07:00.451Z,101256.44
2023-02-27T16:09:31.534Z,101267.59
2023-02-27T16:12:22.988Z,101264.19
2023-02-27T16:14:53.729Z,101268.50
2023-02-27T16:17:27.079Z,101273.63
2023-02-27T16:19:56.445Z,101279.63
2023-02-27T16:22:25.251Z,101278.75
2023-02-27T16:24:54.444Z,101290.78
2023-02-27T16:27:26.004Z,101285.63
2023-02-27T16:29:55.955Z,101289.06
2023-02-27T16:32:28.269Z,101286.47
2023-02-27T16:35:05.828Z,101288.19
2023-02-27T16:37:38.003Z,101295.06
2023-02-27T16:40:15.165Z,101295.06
2023-02-27T16:42:43.293Z,101288.22
2023-02-27T16:45:16.093Z,101284.78
2023-02-27T16:47:45.340Z,101295.94
2023-02-27T16:50:19.398Z,101293.34
2023-02-27T16:52:47.331Z,101298.50
2023-02-27T16:55:15.888Z,101305.31
2023-02-27T16:57:43.761Z,101307.91
2023-02-27T17:00:15.118Z,101307.03
2023-02-27T17:02:43.144Z,101312.19
2023-02-27T17:05:12.475Z,101320.78
2023-02-27T17:07:40.492Z,101318.22
2023-02-27T17:10:08.966Z,101329.31
2023-02-27T17:12:36.797Z,101329.34
2023-02-27T17:15:05.441Z,101332.75
2023-02-27T17:17:33.125Z,101330.22
2023-02-27T17:20:00.759Z,101331.91
2023-02-27T17:22:29.853Z,101339.66
2023-02-27T17:24:57.539Z,101331.06
2023-02-27T17:27:25.433Z,101337.00
2023-02-27T17:29:53.833Z,101351.53
2023-02-27T17:32:21.845Z,101350.69
2023-02-27T17:34:53.875Z,101354.13
2023-02-27T17:37:22.748Z,101370.28
2023-02-27T17:39:52.126Z,101355.81
2023-02-27T17:42:20.362Z,101364.41
2023-02-27T17:44:48.361Z,101364.38
2023-02-27T17:47:16.652Z,101368.66
2023-02-27T17:49:44.451Z,101369.53
2023-02-27T17:52:12.595Z,101371.28
2023-02-27T17:54:40.632Z,101361.88
2023-02-27T17:57:12.025Z,101377.28
2023-02-27T17:59:40.946Z,101378.97
2023-02-27T18:02:08.678Z,101381.47
2023-02-27T18:04:36.684Z,101383.19
2023-02-27T18:07:04.389Z,101389.19
2023-02-27T18:09:32.426Z,101393.50
2023-02-27T18:12:00.490Z,101395.19
2023-02-27T18:14:29.592Z,101399.44
2023-02-27T18:16:58.297Z,101407.97
2023-02-27T18:19:26.924Z,101417.28
2023-02-27T18:21:54.802Z,101418.13
2023-02-27T18:24:22.716Z,101410.50
2023-02-27T18:26:50.555Z,101414.81
2023-02-27T18:29:19.103Z,101421.59
2023-02-27T18:31:50.149Z,101418.94
2023-02-27T18:34:18.131Z,101425.88
2023-02-27T18:36:46.158Z,101433.44
2023-02-27T18:39:15.246Z,101424.88
2023-02-27T18:41:42.943Z,101429.13
2023-02-27T18:44:11.213Z,101428.34
2023-02-27T18:46:40.179Z,101430.16
2023-02-27T18:49:09.788Z,101427.59
2023-02-27T18:51:37.670Z,101437.63
2023-02-27T18:54:06.882Z,101435.00
2023-02-27T18:56:34.795Z,101435.91
2023-02-27T18:59:05.110Z,101435.97
2023-02-27T19:01:35.886Z,101430.00
2023-02-27T19:04:06.280Z,101429.84
2023-02-27T19:06:39.284Z,101432.59
2023-02-27T19:09:07.921Z,101435.88
2023-02-27T19:11:47.533Z,101440.34
2023-02-27T19:14:17.235Z,101447.84
